Harrington Harbour, Canada
Current Conditions -  °F | °C
As of 6:00 PM on Tuesday 21 Oct 2014 (Local Time) from CWDH Reporting Station
Clear Clear  
Wind Chill: 38°   Ceiling: Unl
Heat Index: 42°   Visibility: 9mi
Dew Point: 31°   Wind: 8mph
Humidity: 64%   Direction: 270°W
Pressure: 30.09"   Gusts: NA
Location:  50.52°N, 59.48°W
Report Text: CWDH 212100Z AUTO 27007KT 9SM NSC 06/M00 A3009 RMK SLP192 T00581005 70055 WSI/SWOB
Loading
Personal Weather Stations






























Interactive Weather Map
Tropical Storm Tracking
New forecast layout! Learn more

10-Day Weather Forecast

Advertisements
Track Severe Weather on mobile